Time;durP1;ratioP1;P1;durP2;ratioP2;P2;SDS_P1;SDS_P2;PMS_P1;PMS_P2;Temp;Humidity;BMP_temperature;BMP_pressure;BME280_temperature;BME280_humidity;BME280_pressure;Samples;Min_cycle;Max_cycle;Signal;HPM_P1;HPM_P2
2023/05/06 00:02:01;;;;;;;4.60;3.30;;;19.00;69.60;;;;;;5037784;28;47495;-71
2023/05/06 00:04:28;;;;;;;4.45;3.28;;;19.00;69.70;;;;;;5041319;28;45472;-71
2023/05/06 00:06:55;;;;;;;4.85;3.25;;;19.00;69.60;;;;;;5041481;28;45346;-71
2023/05/06 00:09:22;;;;;;;4.75;3.42;;;19.00;69.80;;;;;;5041837;27;45211;-71
2023/05/06 00:11:49;;;;;;;5.68;3.40;;;19.00;69.70;;;;;;5041829;27;45441;-71
2023/05/06 00:14:17;;;;;;;4.72;3.50;;;19.00;69.80;;;;;;5041348;28;45353;-71
2023/05/06 00:16:44;;;;;;;4.70;3.47;;;19.00;69.70;;;;;;5041324;28;45287;-71
2023/05/06 00:19:11;;;;;;;4.82;3.30;;;19.00;69.70;;;;;;5041901;28;45554;-71
2023/05/06 00:21:38;;;;;;;4.40;3.47;;;19.00;69.70;;;;;;5041317;28;46874;-71
2023/05/06 00:24:05;;;;;;;6.68;3.90;;;19.00;69.70;;;;;;5041700;28;45416;-71
2023/05/06 00:26:32;;;;;;;6.43;4.05;;;19.00;69.70;;;;;;5041405;28;45260;-71
2023/05/06 00:28:59;;;;;;;4.55;3.38;;;19.00;69.60;;;;;;5041943;28;45390;-72
2023/05/06 00:31:27;;;;;;;5.22;3.80;;;19.00;69.60;;;;;;5041340;28;46628;-72
2023/05/06 00:33:54;;;;;;;5.55;4.05;;;19.00;69.40;;;;;;5041390;28;45208;-72
2023/05/06 00:36:20;;;;;;;5.63;4.10;;;19.00;69.40;;;;;;5040848;28;45232;-72
2023/05/06 00:38:47;;;;;;;6.18;4.13;;;19.00;69.20;;;;;;5041574;28;45346;-72
2023/05/06 00:41:14;;;;;;;5.43;3.83;;;19.00;68.70;;;;;;5039945;28;46571;-72
2023/05/06 00:43:41;;;;;;;6.40;4.53;;;19.00;68.20;;;;;;5041553;28;45351;-72
2023/05/06 00:46:10;;;;;;;5.50;3.90;;;19.00;68.00;;;;;;5040198;27;45381;-72
2023/05/06 00:48:39;;;;;;;7.20;4.95;;;18.90;67.80;;;;;;5041482;28;45573;-72
2023/05/06 00:51:06;;;;;;;7.18;4.50;;;18.90;67.60;;;;;;5040506;28;46676;-72
2023/05/06 00:53:33;;;;;;;5.57;3.97;;;18.90;67.40;;;;;;5040848;28;45346;-72
2023/05/06 00:56:00;;;;;;;5.45;3.83;;;18.90;67.50;;;;;;5041231;27;45211;-70
2023/05/06 00:58:27;;;;;;;5.00;3.85;;;18.90;67.80;;;;;;5030947;28;45413;-72
2023/05/06 01:00:55;;;;;;;5.43;3.88;;;19.00;68.10;;;;;;5030945;28;47024;-72
2023/05/06 01:03:22;;;;;;;7.15;4.57;;;18.90;68.00;;;;;;5040443;28;45417;-72
2023/05/06 01:05:59;;;;;;;5.97;4.20;;;19.00;68.20;;;;;;5040391;28;45307;-72
2023/05/06 01:08:29;;;;;;;5.78;4.30;;;19.00;68.40;;;;;;5041120;28;45215;-72
2023/05/06 01:11:03;;;;;;;5.13;3.83;;;19.00;68.40;;;;;;5040839;28;47005;-72
2023/05/06 01:13:35;;;;;;;5.35;3.83;;;19.00;68.20;;;;;;5037576;28;45233;-72
2023/05/06 01:16:04;;;;;;;5.05;3.60;;;19.00;68.20;;;;;;5039932;28;45357;-72
2023/05/06 01:18:32;;;;;;;5.45;3.83;;;19.00;68.20;;;;;;5040806;28;45271;-72
2023/05/06 01:21:02;;;;;;;4.53;3.50;;;19.00;68.20;;;;;;5040589;28;48317;-72
2023/05/06 01:23:49;;;;;;;5.18;4.03;;;19.00;68.20;;;;;;5040348;28;45284;-72
2023/05/06 01:26:16;;;;;;;5.43;3.63;;;19.00;68.20;;;;;;5040281;28;45173;-72
2023/05/06 01:28:43;;;;;;;5.97;3.85;;;19.00;68.20;;;;;;5040875;28;45443;-72
2023/05/06 01:31:13;;;;;;;5.43;3.85;;;19.00;68.20;;;;;;5040107;27;46813;-72
2023/05/06 01:33:46;;;;;;;4.75;3.78;;;19.00;68.30;;;;;;5032148;28;45262;-72
2023/05/06 01:36:20;;;;;;;4.35;3.55;;;19.00;68.40;;;;;;5040356;28;45324;-72
2023/05/06 01:38:54;;;;;;;4.40;3.47;;;19.00;68.50;;;;;;5033240;28;45319;-72
2023/05/06 01:41:22;;;;;;;6.82;3.88;;;19.00;68.50;;;;;;5039135;28;46113;-72
2023/05/06 01:43:50;;;;;;;5.20;3.67;;;19.00;68.50;;;;;;5040382;28;45359;-72
2023/05/06 01:46:20;;;;;;;5.22;3.53;;;19.00;68.50;;;;;;5039431;28;45216;-72
2023/05/06 01:48:50;;;;;;;5.07;3.83;;;19.00;68.50;;;;;;5040902;28;45377;-72
2023/05/06 01:51:17;;;;;;;6.25;3.53;;;19.00;68.50;;;;;;5042957;28;47647;-72
2023/05/06 01:53:44;;;;;;;5.15;3.70;;;19.00;68.60;;;;;;5043255;28;45256;-72
2023/05/06 01:56:12;;;;;;;4.00;2.97;;;19.00;68.50;;;;;;5043055;28;45345;-72
2023/05/06 01:58:39;;;;;;;3.75;2.80;;;19.00;68.50;;;;;;5043619;27;45593;-71
2023/05/06 02:01:06;;;;;;;5.13;3.60;;;19.00;68.40;;;;;;5039399;27;45480;-71
2023/05/06 02:03:33;;;;;;;5.32;3.30;;;19.00;68.40;;;;;;5042750;28;45205;-71
2023/05/06 02:05:59;;;;;;;4.28;3.35;;;19.00;68.40;;;;;;5043289;28;45215;-71
2023/05/06 02:08:26;;;;;;;4.30;3.28;;;19.00;68.30;;;;;;5043514;28;45254;-71
2023/05/06 02:10:53;;;;;;;3.83;3.00;;;19.00;68.20;;;;;;5043165;28;48428;-71
2023/05/06 02:13:21;;;;;;;4.65;2.90;;;19.00;69.30;;;;;;5042721;28;45320;-72
2023/05/06 02:15:52;;;;;;;4.68;3.05;;;19.00;68.20;;;;;;5042676;28;45295;-72
2023/05/06 02:18:19;;;;;;;4.97;3.50;;;19.00;68.40;;;;;;5043384;28;45311;-71
2023/05/06 02:20:46;;;;;;;3.72;3.10;;;19.00;68.40;;;;;;5042802;28;48470;-71
2023/05/06 02:23:13;;;;;;;5.38;3.00;;;19.00;68.30;;;;;;5042982;28;45271;-71
2023/05/06 02:25:39;;;;;;;4.00;3.30;;;19.00;68.40;;;;;;5043089;28;45257;-71
2023/05/06 02:28:06;;;;;;;4.15;3.00;;;19.00;68.40;;;;;;5043115;28;45281;-71
2023/05/06 02:30:35;;;;;;;4.25;2.90;;;19.00;68.40;;;;;;5043019;28;45345;-71
2023/05/06 02:33:02;;;;;;;4.53;3.30;;;19.00;68.40;;;;;;5042970;27;45318;-72
2023/05/06 02:35:28;;;;;;;4.03;2.97;;;19.00;68.40;;;;;;5042515;28;45304;-71
2023/05/06 02:37:55;;;;;;;4.95;3.15;;;19.00;68.40;;;;;;5043162;27;45456;-71
2023/05/06 02:40:22;;;;;;;3.47;2.90;;;19.00;68.40;;;;;;5042381;28;47999;-72
2023/05/06 02:42:49;;;;;;;5.95;3.17;;;19.00;68.40;;;;;;5042802;27;45280;-72
2023/05/06 02:45:16;;;;;;;3.70;2.92;;;19.00;68.30;;;;;;5041853;28;45321;-72
2023/05/06 02:47:44;;;;;;;4.63;3.00;;;19.00;69.20;;;;;;5042564;28;45426;-72
2023/05/06 02:50:11;;;;;;;3.67;2.63;;;19.00;68.20;;;;;;5041976;28;46384;-72
2023/05/06 02:52:37;;;;;;;4.10;3.05;;;19.00;68.20;;;;;;5042687;28;45254;-72
2023/05/06 02:55:05;;;;;;;3.28;2.53;;;18.90;68.10;;;;;;5042353;27;45319;-72
2023/05/06 02:57:32;;;;;;;3.28;2.45;;;19.00;68.20;;;;;;5042457;28;45453;-72
2023/05/06 02:59:59;;;;;;;3.75;2.75;;;18.90;68.20;;;;;;5042383;28;46604;-71
2023/05/06 03:02:26;;;;;;;3.33;2.50;;;18.90;68.20;;;;;;5042351;28;45445;-72
2023/05/06 03:04:54;;;;;;;3.35;2.50;;;18.90;68.30;;;;;;5042563;28;45296;-72
2023/05/06 03:07:20;;;;;;;4.65;2.90;;;18.90;68.20;;;;;;5042761;28;45291;-72
2023/05/06 03:09:47;;;;;;;3.67;2.65;;;18.90;68.20;;;;;;5042246;28;46394;-71
2023/05/06 03:12:14;;;;;;;3.35;2.60;;;18.90;68.20;;;;;;5042234;28;45288;-72
2023/05/06 03:14:41;;;;;;;3.60;2.70;;;18.90;68.20;;;;;;5033723;28;45378;-72
2023/05/06 03:17:08;;;;;;;3.75;2.70;;;18.90;68.20;;;;;;5042126;28;45591;-71
2023/05/06 03:19:34;;;;;;;3.20;2.13;;;18.90;68.10;;;;;;5041867;28;48059;-72
2023/05/06 03:22:02;;;;;;;3.10;2.38;;;18.90;68.10;;;;;;5042200;28;45569;-71
2023/05/06 03:24:29;;;;;;;2.67;2.38;;;18.90;68.10;;;;;;5041937;28;45489;-72
2023/05/06 03:26:57;;;;;;;2.60;2.20;;;18.90;68.00;;;;;;5041869;28;45569;-71
2023/05/06 03:29:24;;;;;;;2.95;2.10;;;18.90;67.90;;;;;;5041871;28;48177;-71
2023/05/06 03:31:51;;;;;;;2.95;2.22;;;18.90;67.80;;;;;;5042308;28;45379;-72
2023/05/06 03:34:17;;;;;;;5.07;1.95;;;18.90;67.80;;;;;;5041673;28;45355;-72
2023/05/06 03:36:44;;;;;;;3.30;2.50;;;18.90;67.80;;;;;;5042422;28;45439;-71
2023/05/06 03:39:12;;;;;;;2.72;2.00;;;18.90;67.80;;;;;;5040819;28;45458;-72
2023/05/06 03:41:39;;;;;;;3.10;2.10;;;18.90;67.70;;;;;;5041591;28;45774;-71
2023/05/06 03:44:06;;;;;;;3.38;2.38;;;18.90;67.70;;;;;;5042032;28;45189;-72
2023/05/06 03:46:33;;;;;;;2.97;2.40;;;18.90;67.70;;;;;;5041699;27;45287;-72
2023/05/06 03:49:01;;;;;;;3.20;2.10;;;18.90;67.70;;;;;;5041604;28;46478;-71
2023/05/06 03:51:28;;;;;;;2.97;2.20;;;18.90;67.70;;;;;;5041506;28;45521;-72
2023/05/06 03:53:55;;;;;;;3.25;2.42;;;18.90;67.70;;;;;;5041708;28;45265;-72
2023/05/06 03:56:23;;;;;;;3.15;2.55;;;18.90;67.70;;;;;;5041988;27;45266;-72
2023/05/06 03:58:50;;;;;;;3.10;2.38;;;18.90;67.70;;;;;;5041856;28;47360;-72
2023/05/06 04:01:17;;;;;;;4.35;2.97;;;18.90;67.70;;;;;;5029363;28;45263;-72
2023/05/06 04:03:44;;;;;;;2.60;2.38;;;18.90;67.70;;;;;;5022420;28;45357;-72
2023/05/06 04:06:11;;;;;;;3.05;2.33;;;18.90;67.70;;;;;;5021971;28;45270;-71
2023/05/06 04:08:37;;;;;;;4.00;2.60;;;18.90;67.70;;;;;;5041478;28;45471;-72
2023/05/06 04:11:05;;;;;;;3.88;2.60;;;18.90;67.70;;;;;;5040709;28;45258;-71
2023/05/06 04:13:33;;;;;;;3.38;2.38;;;18.90;67.60;;;;;;5041430;28;45240;-71
2023/05/06 04:16:00;;;;;;;2.95;2.47;;;18.90;67.70;;;;;;5041697;27;45267;-71
2023/05/06 04:18:27;;;;;;;2.75;2.38;;;18.90;67.60;;;;;;5041537;28;47779;-70
2023/05/06 04:20:54;;;;;;;3.42;2.15;;;18.90;67.60;;;;;;5041855;27;45193;-72
2023/05/06 04:23:21;;;;;;;3.40;2.33;;;18.90;67.50;;;;;;5041428;28;45271;-72
2023/05/06 04:25:48;;;;;;;3.17;2.35;;;18.90;67.50;;;;;;5041166;28;45627;-71
2023/05/06 04:28:16;;;;;;;2.88;2.38;;;18.90;67.50;;;;;;5041403;28;48173;-71
2023/05/06 04:30:45;;;;;;;3.15;2.65;;;19.00;67.50;;;;;;5041566;28;45208;-72
2023/05/06 04:33:12;;;;;;;3.53;2.30;;;19.00;67.60;;;;;;5041537;28;45384;-72
2023/05/06 04:35:39;;;;;;;3.03;2.50;;;18.90;67.50;;;;;;5041188;28;45550;-72
2023/05/06 04:38:06;;;;;;;2.75;2.20;;;18.90;67.50;;;;;;5041051;28;46340;-72
2023/05/06 04:40:35;;;;;;;2.63;2.10;;;18.90;67.50;;;;;;5041248;28;45266;-72
2023/05/06 04:43:03;;;;;;;3.03;2.00;;;18.90;67.40;;;;;;5041576;28;45292;-72
2023/05/06 04:45:31;;;;;;;2.53;2.20;;;18.90;67.40;;;;;;5040327;28;45317;-71
2023/05/06 04:47:59;;;;;;;3.03;2.25;;;18.90;67.40;;;;;;5040952;28;47279;-72
2023/05/06 04:50:26;;;;;;;2.83;2.00;;;18.90;67.30;;;;;;5039631;28;45405;-72
2023/05/06 04:52:52;;;;;;;2.20;1.80;;;18.90;67.30;;;;;;5021873;28;45287;-72
2023/05/06 04:55:19;;;;;;;2.80;1.90;;;18.90;67.20;;;;;;5037734;28;45374;-72
2023/05/06 04:57:46;;;;;;;3.58;1.92;;;18.90;67.20;;;;;;5041201;28;45284;-72
2023/05/06 05:00:15;;;;;;;2.10;1.52;;;18.90;67.10;;;;;;5040760;28;45495;-71
2023/05/06 05:02:42;;;;;;;2.25;1.50;;;18.90;67.10;;;;;;5032525;28;45370;-71
2023/05/06 05:05:10;;;;;;;2.60;1.90;;;18.90;67.00;;;;;;5040940;28;45228;-71
2023/05/06 05:07:37;;;;;;;2.00;1.63;;;18.90;67.00;;;;;;5040683;28;46599;-71
2023/05/06 05:10:05;;;;;;;2.20;1.80;;;18.90;67.10;;;;;;5040849;27;45373;-71
2023/05/06 05:12:31;;;;;;;2.13;1.77;;;18.90;67.00;;;;;;5040657;28;45440;-71
2023/05/06 05:14:58;;;;;;;1.98;1.70;;;18.90;67.00;;;;;;5040687;28;45571;-71
2023/05/06 05:17:25;;;;;;;2.20;1.80;;;19.00;67.00;;;;;;5040704;28;45470;-71
2023/05/06 05:19:52;;;;;;;1.80;1.58;;;18.90;67.00;;;;;;5040848;28;45329;-71
2023/05/06 05:22:20;;;;;;;2.85;2.00;;;19.00;67.10;;;;;;5041779;28;45300;-71
2023/05/06 05:24:47;;;;;;;2.00;1.77;;;18.90;67.10;;;;;;5043215;28;45454;-72
2023/05/06 05:27:14;;;;;;;2.08;1.75;;;18.90;67.10;;;;;;5043424;28;48486;-72
2023/05/06 05:29:40;;;;;;;2.80;1.77;;;18.90;67.10;;;;;;5043687;28;45362;-72
2023/05/06 05:32:07;;;;;;;3.30;1.70;;;18.90;67.10;;;;;;5043706;28;45284;-72
2023/05/06 05:34:34;;;;;;;2.53;1.77;;;18.90;67.10;;;;;;5043431;28;45349;-71
2023/05/06 05:37:01;;;;;;;1.98;1.70;;;18.90;67.20;;;;;;5043378;28;46555;-72
2023/05/06 05:39:29;;;;;;;1.92;1.73;;;18.90;67.20;;;;;;5042029;28;45353;-71
2023/05/06 05:41:56;;;;;;;2.20;1.77;;;18.90;67.20;;;;;;5043863;28;45411;-72
2023/05/06 05:44:22;;;;;;;2.42;1.80;;;18.90;67.20;;;;;;5043554;28;45258;-72
2023/05/06 05:46:49;;;;;;;1.60;1.48;;;18.90;67.20;;;;;;5040962;28;46311;-72
2023/05/06 05:49:16;;;;;;;1.70;1.25;;;19.00;67.30;;;;;;5043048;28;45394;-73
2023/05/06 05:51:43;;;;;;;2.33;1.77;;;19.00;67.30;;;;;;5043357;28;45335;-72
2023/05/06 05:54:09;;;;;;;2.08;1.42;;;19.00;67.30;;;;;;5043437;28;45584;-72
2023/05/06 05:56:38;;;;;;;2.53;1.80;;;19.00;67.30;;;;;;5043579;28;45273;-72
2023/05/06 05:59:06;;;;;;;2.17;1.70;;;19.00;67.40;;;;;;5043778;28;45258;-71
2023/05/06 06:01:32;;;;;;;1.65;1.50;;;19.00;67.50;;;;;;5043850;28;45223;-71
2023/05/06 06:03:59;;;;;;;2.35;1.95;;;19.00;67.60;;;;;;5041924;28;45660;-71
2023/05/06 06:06:26;;;;;;;2.85;2.10;;;19.00;67.70;;;;;;5042876;28;45449;-72
2023/05/06 06:08:53;;;;;;;2.30;1.70;;;19.00;67.70;;;;;;5043364;28;45372;-72
2023/05/06 06:11:21;;;;;;;2.28;1.83;;;19.00;67.80;;;;;;5043188;28;45243;-72
2023/05/06 06:13:49;;;;;;;2.38;1.70;;;19.00;67.80;;;;;;5043249;28;45211;-72
2023/05/06 06:16:16;;;;;;;1.90;1.70;;;19.00;67.80;;;;;;5042340;28;48398;-72
2023/05/06 06:18:43;;;;;;;1.90;1.70;;;19.00;67.90;;;;;;5043056;28;45256;-72
2023/05/06 06:21:09;;;;;;;2.33;1.38;;;19.00;68.00;;;;;;5043339;28;45362;-72
2023/05/06 06:23:36;;;;;;;2.03;1.70;;;19.00;68.00;;;;;;5043124;28;45500;-73
2023/05/06 06:26:03;;;;;;;1.95;1.67;;;19.00;68.00;;;;;;5042414;28;48134;-72
2023/05/06 06:28:30;;;;;;;1.63;1.52;;;19.00;68.00;;;;;;5042945;28;45336;-72
2023/05/06 06:30:58;;;;;;;1.70;1.40;;;19.00;68.00;;;;;;5042860;27;45337;-72
2023/05/06 06:33:25;;;;;;;1.23;1.10;;;19.00;68.00;;;;;;5042557;28;45208;-71
2023/05/06 06:35:52;;;;;;;1.40;1.30;;;19.00;68.00;;;;;;5042259;27;45314;-72
2023/05/06 06:38:19;;;;;;;1.40;1.23;;;19.00;68.00;;;;;;5042734;28;45272;-72
2023/05/06 06:40:45;;;;;;;1.70;1.50;;;19.00;67.90;;;;;;5043142;28;45361;-72
2023/05/06 06:43:12;;;;;;;1.35;1.20;;;19.00;68.10;;;;;;5042976;28;45422;-71
2023/05/06 06:45:39;;;;;;;3.25;1.30;;;19.00;68.20;;;;;;5041706;28;47191;-72
2023/05/06 06:48:07;;;;;;;1.52;1.20;;;19.00;68.30;;;;;;5042952;28;45331;-72
2023/05/06 06:50:34;;;;;;;1.67;1.40;;;19.00;69.50;;;;;;5042618;28;45367;-68
2023/05/06 06:53:01;;;;;;;1.50;1.40;;;19.00;68.40;;;;;;5043030;28;45564;-72
2023/05/06 06:55:27;;;;;;;2.05;1.60;;;19.00;68.50;;;;;;5042348;28;46980;-72
2023/05/06 06:57:54;;;;;;;1.52;1.38;;;19.00;68.50;;;;;;5042431;28;45419;-72
2023/05/06 07:00:21;;;;;;;1.63;1.35;;;19.00;68.50;;;;;;5042817;28;45186;-72
2023/05/06 07:02:48;;;;;;;1.63;1.15;;;19.00;68.70;;;;;;5041269;28;45180;-72
2023/05/06 07:05:16;;;;;;;1.38;1.13;;;19.00;68.60;;;;;;5042144;28;47714;-72
2023/05/06 07:07:43;;;;;;;1.85;1.50;;;19.00;68.70;;;;;;5034342;28;45332;-72
2023/05/06 07:10:10;;;;;;;1.30;1.20;;;19.00;68.70;;;;;;5042723;28;45292;-72
2023/05/06 07:12:37;;;;;;;1.30;1.15;;;19.00;68.70;;;;;;5042699;28;45302;-72
2023/05/06 07:15:05;;;;;;;1.58;1.20;;;19.00;68.70;;;;;;5041786;28;45368;-71
2023/05/06 07:17:32;;;;;;;1.80;1.30;;;19.10;68.60;;;;;;5042333;28;45438;-72
2023/05/06 07:19:59;;;;;;;0.82;0.77;;;19.10;68.70;;;;;;5042489;28;45413;-71
2023/05/06 07:22:27;;;;;;;1.65;1.23;;;19.10;68.80;;;;;;5042771;28;45631;-71
2023/05/06 07:24:54;;;;;;;1.50;1.10;;;19.10;68.70;;;;;;5042185;28;47017;-71
2023/05/06 07:27:22;;;;;;;1.73;1.20;;;19.10;68.70;;;;;;5042088;28;45277;-72
2023/05/06 07:29:49;;;;;;;1.20;1.10;;;19.10;68.90;;;;;;5041320;28;45459;-71
2023/05/06 07:32:16;;;;;;;1.50;1.17;;;19.10;69.00;;;;;;5042103;28;45567;-73
2023/05/06 07:34:43;;;;;;;3.20;1.30;;;19.10;69.10;;;;;;5041677;28;48159;-72
2023/05/06 07:37:10;;;;;;;1.63;1.30;;;19.10;69.20;;;;;;5042007;28;45423;-72
2023/05/06 07:39:38;;;;;;;1.00;0.90;;;19.10;69.30;;;;;;5042247;28;45434;-71
2023/05/06 07:42:06;;;;;;;1.10;1.00;;;19.10;69.20;;;;;;5042203;28;45268;-71
2023/05/06 07:44:33;;;;;;;1.25;1.15;;;19.10;69.20;;;;;;5041913;28;46369;-71
2023/05/06 07:46:59;;;;;;;1.90;1.10;;;19.10;69.20;;;;;;5039721;28;45817;-72
2023/05/06 07:49:27;;;;;;;1.25;1.02;;;19.10;69.40;;;;;;5042219;28;45611;-71
2023/05/06 07:51:54;;;;;;;1.10;1.00;;;19.10;69.40;;;;;;5040852;28;45180;-71
2023/05/06 07:54:21;;;;;;;1.63;1.10;;;19.10;69.30;;;;;;5041737;28;46605;-71
2023/05/06 07:56:49;;;;;;;1.65;0.98;;;19.10;69.30;;;;;;5041874;28;45462;-72
2023/05/06 07:59:16;;;;;;;1.10;1.00;;;19.10;69.20;;;;;;5041844;28;45391;-72
2023/05/06 08:01:43;;;;;;;1.48;0.80;;;19.10;69.20;;;;;;5038108;28;45315;-72
2023/05/06 08:04:09;;;;;;;0.80;0.80;;;19.10;69.30;;;;;;5040224;28;46696;-72
2023/05/06 08:06:36;;;;;;;2.20;0.95;;;19.10;69.20;;;;;;5041683;28;45317;-71
2023/05/06 08:09:03;;;;;;;1.02;0.90;;;19.10;69.20;;;;;;5041934;28;45290;-72
2023/05/06 08:11:30;;;;;;;1.10;1.00;;;19.10;69.20;;;;;;5041601;28;45298;-72
2023/05/06 08:13:58;;;;;;;1.05;0.95;;;19.10;69.20;;;;;;5041354;28;47141;-72
2023/05/06 08:16:25;;;;;;;1.15;0.95;;;19.10;69.60;;;;;;5041370;28;45301;-72
2023/05/06 08:18:52;;;;;;;1.02;0.90;;;19.10;69.50;;;;;;5041615;28;45425;-71
2023/05/06 08:21:18;;;;;;;1.27;0.95;;;19.10;69.60;;;;;;5041935;28;45575;-72
2023/05/06 08:23:45;;;;;;;1.35;1.00;;;19.10;69.70;;;;;;5041787;28;47014;-72
2023/05/06 08:26:12;;;;;;;2.25;1.13;;;19.10;69.80;;;;;;5041135;28;45343;-71
2023/05/06 08:28:39;;;;;;;1.05;0.80;;;19.10;69.80;;;;;;5041756;28;45236;-71
2023/05/06 08:31:07;;;;;;;0.80;0.70;;;19.10;69.60;;;;;;5041757;28;45433;-71
2023/05/06 08:33:33;;;;;;;0.77;0.70;;;19.10;69.70;;;;;;5041774;28;45320;-71
2023/05/06 08:36:00;;;;;;;0.80;0.80;;;19.10;69.80;;;;;;5041056;28;45241;-72
2023/05/06 08:38:27;;;;;;;1.05;0.95;;;19.10;69.70;;;;;;5041563;28;45399;-72
2023/05/06 08:40:54;;;;;;;0.77;0.70;;;19.10;69.80;;;;;;5041735;28;45369;-71
2023/05/06 08:43:22;;;;;;;0.98;0.70;;;19.10;69.80;;;;;;5040833;28;48225;-72
2023/05/06 08:45:49;;;;;;;0.80;0.70;;;19.10;69.60;;;;;;5040080;28;45883;-72
2023/05/06 08:48:17;;;;;;;0.80;0.80;;;19.10;69.50;;;;;;5041274;28;45200;-72
2023/05/06 08:50:44;;;;;;;1.00;0.60;;;19.10;69.40;;;;;;5039664;28;45572;-71
2023/05/06 08:53:12;;;;;;;0.80;0.80;;;19.20;69.60;;;;;;5041189;28;46285;-72
2023/05/06 08:55:40;;;;;;;0.60;0.60;;;19.20;69.50;;;;;;5041056;28;45886;-72
2023/05/06 08:58:08;;;;;;;0.73;0.70;;;19.20;70.70;;;;;;5040882;28;45310;-71
2023/05/06 09:00:35;;;;;;;1.58;0.70;;;19.10;69.70;;;;;;5041183;28;45294;-72
2023/05/06 09:03:02;;;;;;;0.60;0.60;;;19.20;69.90;;;;;;5039445;28;47960;-71
2023/05/06 09:05:30;;;;;;;0.70;0.70;;;19.20;70.00;;;;;;5041115;28;45312;-72
2023/05/06 09:07:57;;;;;;;1.40;0.75;;;19.10;69.80;;;;;;5041027;28;45278;-72
2023/05/06 09:10:24;;;;;;;0.65;0.60;;;19.10;69.70;;;;;;5041110;28;45285;-71
2023/05/06 09:12:53;;;;;;;0.60;0.60;;;19.10;69.80;;;;;;5040663;28;47946;-71
2023/05/06 09:15:24;;;;;;;2.25;0.65;;;19.10;69.80;;;;;;5040438;28;45198;-72
2023/05/06 09:17:51;;;;;;;0.30;0.30;;;19.10;69.70;;;;;;5041183;28;45407;-71
2023/05/06 09:20:18;;;;;;;0.45;0.40;;;19.10;69.80;;;;;;5040809;28;45329;-72
2023/05/06 09:22:46;;;;;;;0.70;0.55;;;19.10;69.60;;;;;;5040726;28;47003;-72
2023/05/06 09:25:13;;;;;;;1.73;0.55;;;19.20;69.70;;;;;;5040512;28;45387;-72
2023/05/06 09:27:40;;;;;;;0.47;0.47;;;19.10;69.40;;;;;;5040308;28;45328;-72
2023/05/06 09:30:10;;;;;;;0.40;0.40;;;19.20;69.60;;;;;;5040796;28;45395;-72
2023/05/06 09:32:37;;;;;;;0.32;0.32;;;19.20;69.50;;;;;;5040366;28;47759;-71
2023/05/06 09:35:04;;;;;;;0.30;0.30;;;19.20;69.30;;;;;;5040234;28;45442;-72
2023/05/06 09:37:31;;;;;;;1.25;0.57;;;19.20;69.20;;;;;;5038382;28;45248;-72
2023/05/06 09:40:00;;;;;;;0.75;0.60;;;19.20;69.30;;;;;;5040750;28;45368;-72
2023/05/06 09:42:28;;;;;;;0.55;0.43;;;19.20;69.40;;;;;;5040095;28;45365;-72
2023/05/06 09:44:56;;;;;;;0.70;0.50;;;19.20;69.40;;;;;;5040420;27;45337;-72
2023/05/06 09:47:24;;;;;;;0.95;0.45;;;19.20;69.40;;;;;;5039581;28;45338;-72
2023/05/06 09:49:51;;;;;;;0.82;0.40;;;19.20;69.60;;;;;;5040551;28;45246;-72
2023/05/06 09:52:19;;;;;;;0.73;0.50;;;19.20;69.60;;;;;;5038922;28;46689;-72
2023/05/06 09:54:47;;;;;;;0.70;0.50;;;19.20;69.60;;;;;;5039700;28;45818;-72
2023/05/06 09:57:16;;;;;;;0.40;0.40;;;19.20;69.70;;;;;;5040227;28;45345;-71
2023/05/06 09:59:44;;;;;;;1.40;0.68;;;19.20;70.70;;;;;;5032260;28;45264;-71
2023/05/06 10:02:12;;;;;;;0.35;0.30;;;19.20;69.60;;;;;;5035807;28;47942;-71
2023/05/06 10:04:41;;;;;;;0.95;0.50;;;19.20;69.70;;;;;;5039784;28;45231;-72
2023/05/06 10:07:10;;;;;;;0.40;0.32;;;19.20;69.50;;;;;;5040160;28;45355;-72
2023/05/06 10:09:38;;;;;;;0.80;0.40;;;19.20;69.50;;;;;;5041723;28;45270;-72
2023/05/06 10:12:07;;;;;;;0.45;0.35;;;19.20;69.50;;;;;;5043149;28;48062;-72
2023/05/06 10:14:35;;;;;;;1.15;0.50;;;19.20;69.50;;;;;;5042919;28;45321;-71
2023/05/06 10:17:05;;;;;;;0.75;0.40;;;19.20;69.50;;;;;;5043080;28;45334;-72
2023/05/06 10:19:33;;;;;;;0.60;0.30;;;19.20;69.50;;;;;;5043331;28;45238;-72
2023/05/06 10:22:07;;;;;;;0.50;0.40;;;19.20;69.30;;;;;;5042787;28;46718;-72
2023/05/06 10:24:45;;;;;;;0.68;0.40;;;19.20;69.20;;;;;;5042904;28;45456;-72
2023/05/06 10:27:13;;;;;;;0.30;0.30;;;19.20;69.20;;;;;;5042902;28;45420;-72
2023/05/06 10:29:43;;;;;;;0.40;0.30;;;19.20;69.40;;;;;;5043084;28;45316;-71
2023/05/06 10:32:12;;;;;;;0.88;0.50;;;19.20;69.50;;;;;;5042787;28;47341;-72
2023/05/06 10:34:52;;;;;;;0.28;0.28;;;19.20;69.50;;;;;;5042441;28;45377;-72
2023/05/06 10:37:19;;;;;;;0.43;0.43;;;19.20;69.40;;;;;;5042858;28;45340;-71
2023/05/06 10:39:47;;;;;;;0.98;0.47;;;19.20;70.70;;;;;;5042962;28;45420;-72
2023/05/06 10:42:16;;;;;;;0.32;0.32;;;19.20;69.60;;;;;;5042694;28;47379;-72
2023/05/06 10:44:58;;;;;;;0.30;0.30;;;19.20;69.60;;;;;;5035033;28;45464;-72
2023/05/06 10:47:25;;;;;;;0.40;0.35;;;19.20;69.60;;;;;;5039312;28;45262;-72
2023/05/06 10:50:20;;;;;;;1.02;0.35;;;19.20;69.60;;;;;;5042753;28;45547;-72
2023/05/06 10:52:50;;;;;;;0.30;0.30;;;19.20;69.50;;;;;;5028765;27;45458;-72
2023/05/06 10:55:28;;;;;;;0.35;0.28;;;19.20;69.40;;;;;;5042374;28;45360;-72
2023/05/06 10:57:56;;;;;;;0.55;0.38;;;19.20;69.40;;;;;;5042441;27;45220;-72
2023/05/06 11:00:25;;;;;;;0.45;0.30;;;19.30;69.40;;;;;;5038126;28;45323;-72
2023/05/06 11:03:00;;;;;;;0.70;0.50;;;19.20;69.30;;;;;;5027133;28;48178;-72
2023/05/06 11:05:27;;;;;;;0.13;0.13;;;19.30;69.30;;;;;;5042219;28;45467;-72
2023/05/06 11:08:08;;;;;;;0.63;0.40;;;19.30;69.20;;;;;;5042660;28;45283;-72
2023/05/06 11:10:35;;;;;;;0.68;0.40;;;19.30;69.20;;;;;;5042430;28;45315;-72
2023/05/06 11:13:24;;;;;;;0.30;0.30;;;19.20;69.30;;;;;;5042061;28;46323;-72
2023/05/06 11:15:53;;;;;;;0.40;0.40;;;19.20;69.50;;;;;;5041860;28;46963;-72
2023/05/06 11:18:42;;;;;;;0.28;0.25;;;19.20;70.50;;;;;;5042194;27;45398;-72
2023/05/06 11:21:37;;;;;;;0.20;0.20;;;19.20;69.60;;;;;;5042233;28;45258;-72
2023/05/06 11:24:08;;;;;;;0.20;0.20;;;19.20;69.50;;;;;;5026096;28;47699;-72
2023/05/06 11:26:35;;;;;;;0.45;0.32;;;19.20;69.50;;;;;;5041961;28;45333;-72
2023/05/06 11:29:03;;;;;;;0.40;0.40;;;19.20;69.60;;;;;;5042516;28;45499;-72
2023/05/06 11:31:39;;;;;;;0.77;0.40;;;19.20;69.50;;;;;;5042246;28;45240;-72
2023/05/06 11:34:08;;;;;;;0.45;0.32;;;19.20;69.50;;;;;;5042164;28;47994;-72
2023/05/06 11:36:35;;;;;;;0.50;0.43;;;19.20;69.50;;;;;;5029540;28;45320;-72
2023/05/06 11:39:07;;;;;;;0.40;0.40;;;19.20;69.40;;;;;;5022456;28;45305;-72
2023/05/06 11:41:34;;;;;;;0.65;0.43;;;19.20;69.20;;;;;;5041543;28;45345;-71
2023/05/06 11:44:01;;;;;;;0.68;0.50;;;19.30;69.20;;;;;;5041891;28;48366;-72
2023/05/06 11:46:31;;;;;;;0.93;0.38;;;19.30;69.10;;;;;;5040994;27;45250;-71
2023/05/06 11:48:58;;;;;;;0.25;0.25;;;19.30;69.20;;;;;;5030407;28;45347;-72
2023/05/06 11:51:25;;;;;;;0.40;0.20;;;19.30;69.10;;;;;;5038270;28;45374;-72
2023/05/06 11:53:52;;;;;;;0.30;0.30;;;19.30;69.00;;;;;;5042236;28;45437;-70
2023/05/06 11:56:19;;;;;;;0.82;0.32;;;19.30;69.10;;;;;;5042015;28;45279;-72
2023/05/06 11:58:46;;;;;;;0.45;0.28;;;19.30;70.30;;;;;;5041941;28;45217;-72
2023/05/06 12:01:13;;;;;;;0.30;0.30;;;19.30;69.20;;;;;;5042234;28;45587;-72
2023/05/06 12:03:41;;;;;;;0.50;0.30;;;19.30;69.30;;;;;;5041707;28;45329;-72
2023/05/06 12:06:08;;;;;;;0.35;0.20;;;19.20;69.20;;;;;;5041662;28;45429;-72
2023/05/06 12:08:36;;;;;;;1.52;0.38;;;19.20;69.20;;;;;;5041861;28;45420;-72
2023/05/06 12:11:06;;;;;;;1.17;0.47;;;19.20;69.30;;;;;;5042240;28;45268;-72
2023/05/06 12:13:35;;;;;;;0.30;0.30;;;19.20;69.20;;;;;;5041926;28;46062;-72
2023/05/06 12:16:03;;;;;;;0.52;0.30;;;19.20;69.30;;;;;;5041987;27;45168;-72
2023/05/06 12:18:30;;;;;;;0.35;0.30;;;19.20;69.10;;;;;;5041962;28;45390;-72
2023/05/06 12:21:02;;;;;;;3.45;0.25;;;19.20;69.00;;;;;;5041996;28;45454;-72
2023/05/06 12:23:29;;;;;;;0.55;0.35;;;19.20;68.90;;;;;;5041826;28;47674;-72
2023/05/06 12:26:03;;;;;;;0.10;0.10;;;19.30;69.10;;;;;;5041193;28;45313;-72
2023/05/06 12:28:31;;;;;;;0.88;0.30;;;19.30;69.10;;;;;;5041844;28;45270;-72
2023/05/06 12:30:58;;;;;;;0.70;0.50;;;19.30;69.10;;;;;;5041914;28;45466;-71
2023/05/06 12:33:25;;;;;;;0.30;0.30;;;19.30;69.10;;;;;;5040488;28;47224;-72
2023/05/06 12:35:53;;;;;;;0.80;0.32;;;19.30;68.90;;;;;;5041538;28;45295;-72
2023/05/06 12:38:21;;;;;;;0.20;0.20;;;19.30;68.90;;;;;;5041459;28;45368;-72
2023/05/06 12:40:54;;;;;;;0.43;0.30;;;19.30;68.90;;;;;;5041756;28;45325;-72
2023/05/06 12:43:28;;;;;;;0.30;0.25;;;19.30;68.90;;;;;;5041192;28;46973;-72
2023/05/06 12:46:03;;;;;;;0.88;0.30;;;19.30;69.00;;;;;;5039905;28;45619;-71
2023/05/06 12:48:30;;;;;;;0.20;0.20;;;19.30;69.00;;;;;;5041593;28;45440;-72
2023/05/06 12:50:56;;;;;;;1.17;0.22;;;19.30;68.90;;;;;;5040094;28;45543;-72
2023/05/06 12:53:35;;;;;;;0.30;0.30;;;19.20;68.90;;;;;;5041068;28;46685;-72